sensor_id;sensor_type;location;lat;lon;timestamp;pressure;altitude;pressure_sealevel;temperature;humidity
40946;BME280;55635;50.264;11.918;2023-01-01T00:01:35;95763.72;;;14.34;73.14
40946;BME280;55635;50.264;11.918;2023-01-01T00:04:19;95756.34;;;14.36;72.24
40946;BME280;55635;50.264;11.918;2023-01-01T00:07:00;95770.31;;;14.45;72.33
40946;BME280;55635;50.264;11.918;2023-01-01T00:09:41;95758.97;;;14.16;73.04
40946;BME280;55635;50.264;11.918;2023-01-01T00:12:41;95764.88;;;13.99;73.76
40946;BME280;55635;50.264;11.918;2023-01-01T00:15:23;95767.38;;;14.20;73.28
40946;BME280;55635;50.264;11.918;2023-01-01T00:18:04;95767.78;;;14.17;73.67
40946;BME280;55635;50.264;11.918;2023-01-01T00:20:45;95752.41;;;14.12;73.23
40946;BME280;55635;50.264;11.918;2023-01-01T00:23:25;95770.25;;;14.12;73.27
40946;BME280;55635;50.264;11.918;2023-01-01T00:26:15;95773.13;;;14.17;73.46
40946;BME280;55635;50.264;11.918;2023-01-01T00:28:57;95776.97;;;13.95;74.29
40946;BME280;55635;50.264;11.918;2023-01-01T00:31:38;95764.25;;;13.84;74.30
40946;BME280;55635;50.264;11.918;2023-01-01T00:34:21;95767.16;;;14.02;73.98
40946;BME280;55635;50.264;11.918;2023-01-01T00:37:02;95775.75;;;13.91;74.62
40946;BME280;55635;50.264;11.918;2023-01-01T00:39:43;95779.03;;;13.99;74.37
40946;BME280;55635;50.264;11.918;2023-01-01T00:42:25;95779.63;;;13.95;74.05
40946;BME280;55635;50.264;11.918;2023-01-01T00:45:06;95784.59;;;14.11;73.41
40946;BME280;55635;50.264;11.918;2023-01-01T00:47:51;95776.19;;;14.07;73.50
40946;BME280;55635;50.264;11.918;2023-01-01T00:50:32;95781.94;;;14.17;73.20
40946;BME280;55635;50.264;11.918;2023-01-01T00:53:13;95783.34;;;13.94;73.90
40946;BME280;55635;50.264;11.918;2023-01-01T00:55:54;95777.22;;;14.00;73.60
40946;BME280;55635;50.264;11.918;2023-01-01T00:58:36;95787.44;;;13.96;73.62
40946;BME280;55635;50.264;11.918;2023-01-01T01:01:16;95784.56;;;13.98;73.41
40946;BME280;55635;50.264;11.918;2023-01-01T01:03:57;95776.59;;;14.11;73.24
40946;BME280;55635;50.264;11.918;2023-01-01T01:06:38;95791.75;;;14.04;73.15
40946;BME280;55635;50.264;11.918;2023-01-01T01:09:19;95783.78;;;14.17;72.66
40946;BME280;55635;50.264;11.918;2023-01-01T01:12:00;95775.16;;;14.08;73.00
40946;BME280;55635;50.264;11.918;2023-01-01T01:14:41;95780.09;;;14.18;72.31
40946;BME280;55635;50.264;11.918;2023-01-01T01:17:22;95786.44;;;14.10;72.81
40946;BME280;55635;50.264;11.918;2023-01-01T01:20:04;95766.13;;;14.16;72.47
40946;BME280;55635;50.264;11.918;2023-01-01T01:22:45;95772.31;;;14.23;72.50
40946;BME280;55635;50.264;11.918;2023-01-01T01:25:26;95768.41;;;14.12;72.13
40946;BME280;55635;50.264;11.918;2023-01-01T01:28:07;95774.97;;;14.16;72.07
40946;BME280;55635;50.264;11.918;2023-01-01T01:30:48;95774.53;;;14.13;72.28
40946;BME280;55635;50.264;11.918;2023-01-01T01:33:28;95771.66;;;14.01;72.89
40946;BME280;55635;50.264;11.918;2023-01-01T01:36:10;95785.22;;;14.13;72.62
40946;BME280;55635;50.264;11.918;2023-01-01T01:38:52;95778.84;;;14.07;72.56
40946;BME280;55635;50.264;11.918;2023-01-01T01:41:33;95778.44;;;14.10;72.50
40946;BME280;55635;50.264;11.918;2023-01-01T01:56:07;95779.69;;;14.08;72.00
40946;BME280;55635;50.264;11.918;2023-01-01T01:58:49;95774.53;;;14.00;72.50
40946;BME280;55635;50.264;11.918;2023-01-01T02:01:30;95767.75;;;13.91;72.52
40946;BME280;55635;50.264;11.918;2023-01-01T02:04:12;95752.13;;;13.75;72.69
40946;BME280;55635;50.264;11.918;2023-01-01T02:06:53;95775.75;;;13.91;72.50
40946;BME280;55635;50.264;11.918;2023-01-01T02:09:35;95775.31;;;13.81;73.26
40946;BME280;55635;50.264;11.918;2023-01-01T02:12:16;95772.59;;;13.68;73.61
40946;BME280;55635;50.264;11.918;2023-01-01T02:14:57;95776.31;;;13.67;73.26
40946;BME280;55635;50.264;11.918;2023-01-01T02:18:09;95776.69;;;13.70;73.61
40946;BME280;55635;50.264;11.918;2023-01-01T02:24:35;95779.22;;;13.85;72.97
40946;BME280;55635;50.264;11.918;2023-01-01T02:30:35;95753.72;;;13.56;73.60
40946;BME280;55635;50.264;11.918;2023-01-01T02:33:22;95765.19;;;13.56;73.90
40946;BME280;55635;50.264;11.918;2023-01-01T02:36:06;95771.78;;;13.74;73.29
40946;BME280;55635;50.264;11.918;2023-01-01T02:38:51;95764.00;;;13.72;73.18
40946;BME280;55635;50.264;11.918;2023-01-01T02:41:38;95759.69;;;13.71;73.43
40946;BME280;55635;50.264;11.918;2023-01-01T02:44:24;95757.41;;;13.61;73.58
40946;BME280;55635;50.264;11.918;2023-01-01T02:47:17;95759.13;;;13.76;72.68
40946;BME280;55635;50.264;11.918;2023-01-01T02:50:10;95752.97;;;13.75;72.95
40946;BME280;55635;50.264;11.918;2023-01-01T02:53:32;95756.22;;;13.71;73.29
40946;BME280;55635;50.264;11.918;2023-01-01T02:56:35;95758.44;;;13.67;73.11
40946;BME280;55635;50.264;11.918;2023-01-01T03:02:52;95762.47;;;13.43;73.79
40946;BME280;55635;50.264;11.918;2023-01-01T03:12:21;95775.09;;;13.28;74.31
40946;BME280;55635;50.264;11.918;2023-01-01T03:21:07;95770.16;;;12.91;75.44
40946;BME280;55635;50.264;11.918;2023-01-01T03:23:51;95776.09;;;12.86;75.95
40946;BME280;55635;50.264;11.918;2023-01-01T03:26:35;95771.50;;;12.74;75.92
40946;BME280;55635;50.264;11.918;2023-01-01T03:29:17;95764.19;;;12.82;75.30
40946;BME280;55635;50.264;11.918;2023-01-01T03:32:01;95762.72;;;12.80;75.87
40946;BME280;55635;50.264;11.918;2023-01-01T03:34:51;95775.81;;;12.81;76.18
40946;BME280;55635;50.264;11.918;2023-01-01T03:37:33;95765.19;;;12.81;75.94
40946;BME280;55635;50.264;11.918;2023-01-01T03:40:16;95762.44;;;12.96;76.03
40946;BME280;55635;50.264;11.918;2023-01-01T03:43:50;95770.72;;;12.80;76.65
40946;BME280;55635;50.264;11.918;2023-01-01T03:46:32;95762.50;;;12.75;76.20
40946;BME280;55635;50.264;11.918;2023-01-01T03:49:15;95770.16;;;12.91;75.93
40946;BME280;55635;50.264;11.918;2023-01-01T03:55:30;95773.72;;;12.70;76.82
40946;BME280;55635;50.264;11.918;2023-01-01T04:01:25;95779.97;;;12.84;76.15
40946;BME280;55635;50.264;11.918;2023-01-01T04:04:07;95778.31;;;12.83;76.24
40946;BME280;55635;50.264;11.918;2023-01-01T04:06:48;95774.78;;;12.76;75.79
40946;BME280;55635;50.264;11.918;2023-01-01T04:09:32;95787.31;;;12.82;76.05
40946;BME280;55635;50.264;11.918;2023-01-01T04:12:15;95786.34;;;12.89;75.48
40946;BME280;55635;50.264;11.918;2023-01-01T04:14:57;95777.25;;;12.77;75.35
40946;BME280;55635;50.264;11.918;2023-01-01T04:17:38;95780.41;;;12.94;74.65
40946;BME280;55635;50.264;11.918;2023-01-01T04:20:21;95772.56;;;12.79;75.34
40946;BME280;55635;50.264;11.918;2023-01-01T04:23:02;95779.81;;;12.92;74.68
40946;BME280;55635;50.264;11.918;2023-01-01T04:25:43;95788.56;;;13.14;73.96
40946;BME280;55635;50.264;11.918;2023-01-01T04:28:24;95788.34;;;13.15;73.76
40946;BME280;55635;50.264;11.918;2023-01-01T04:31:05;95797.63;;;13.26;73.79
40946;BME280;55635;50.264;11.918;2023-01-01T04:33:46;95782.41;;;13.13;73.52
40946;BME280;55635;50.264;11.918;2023-01-01T04:36:27;95791.66;;;13.17;73.38
40946;BME280;55635;50.264;11.918;2023-01-01T04:39:08;95778.84;;;13.06;73.75
40946;BME280;55635;50.264;11.918;2023-01-01T04:41:49;95777.38;;;13.31;72.70
40946;BME280;55635;50.264;11.918;2023-01-01T04:44:30;95786.56;;;13.22;73.04
40946;BME280;55635;50.264;11.918;2023-01-01T04:47:11;95795.78;;;13.26;73.29
40946;BME280;55635;50.264;11.918;2023-01-01T04:49:53;95794.53;;;13.22;73.38
40946;BME280;55635;50.264;11.918;2023-01-01T04:52:33;95786.59;;;13.01;74.42
40946;BME280;55635;50.264;11.918;2023-01-01T04:55:14;95794.88;;;13.13;73.84
40946;BME280;55635;50.264;11.918;2023-01-01T04:57:55;95811.53;;;13.21;73.72
40946;BME280;55635;50.264;11.918;2023-01-01T05:00:37;95814.00;;;13.23;73.48
40946;BME280;55635;50.264;11.918;2023-01-01T05:03:17;95824.66;;;12.95;74.50
40946;BME280;55635;50.264;11.918;2023-01-01T05:06:06;95821.38;;;12.93;75.07
40946;BME280;55635;50.264;11.918;2023-01-01T05:08:50;95834.13;;;13.04;74.92
40946;BME280;55635;50.264;11.918;2023-01-01T05:11:31;95834.53;;;13.01;75.68
40946;BME280;55635;50.264;11.918;2023-01-01T05:14:12;95831.53;;;12.83;76.03
40946;BME280;55635;50.264;11.918;2023-01-01T05:16:53;95830.25;;;12.79;76.41
40946;BME280;55635;50.264;11.918;2023-01-01T05:19:34;95815.22;;;12.92;75.69
40946;BME280;55635;50.264;11.918;2023-01-01T05:22:15;95840.47;;;13.03;76.44
40946;BME280;55635;50.264;11.918;2023-01-01T05:24:56;95819.34;;;12.95;75.80
40946;BME280;55635;50.264;11.918;2023-01-01T05:27:37;95828.19;;;13.02;76.01
40946;BME280;55635;50.264;11.918;2023-01-01T05:30:17;95833.13;;;13.05;76.17
40946;BME280;55635;50.264;11.918;2023-01-01T05:32:58;95833.34;;;12.82;77.04
40946;BME280;55635;50.264;11.918;2023-01-01T05:35:39;95824.66;;;12.95;76.80
40946;BME280;55635;50.264;11.918;2023-01-01T05:38:20;95826.69;;;12.93;76.55
40946;BME280;55635;50.264;11.918;2023-01-01T05:41:05;95818.78;;;12.78;76.68
40946;BME280;55635;50.264;11.918;2023-01-01T05:43:51;95836.06;;;12.89;76.33
40946;BME280;55635;50.264;11.918;2023-01-01T05:46:32;95825.03;;;12.64;77.46
40946;BME280;55635;50.264;11.918;2023-01-01T05:49:13;95845.94;;;12.95;76.47
40946;BME280;55635;50.264;11.918;2023-01-01T05:51:54;95849.78;;;12.86;76.43
40946;BME280;55635;50.264;11.918;2023-01-01T05:54:35;95839.41;;;12.70;77.25
40946;BME280;55635;50.264;11.918;2023-01-01T05:57:16;95860.56;;;12.78;77.03
40946;BME280;55635;50.264;11.918;2023-01-01T05:59:57;95852.81;;;12.83;76.66
40946;BME280;55635;50.264;11.918;2023-01-01T06:02:38;95859.09;;;12.75;77.33
40946;BME280;55635;50.264;11.918;2023-01-01T06:05:19;95852.69;;;12.70;77.08
40946;BME280;55635;50.264;11.918;2023-01-01T06:08:00;95857.94;;;12.84;76.66
40946;BME280;55635;50.264;11.918;2023-01-01T06:10:41;95861.09;;;12.94;76.89
40946;BME280;55635;50.264;11.918;2023-01-01T06:13:22;95866.34;;;12.88;76.43
40946;BME280;55635;50.264;11.918;2023-01-01T06:16:03;95864.84;;;12.79;76.83
40946;BME280;55635;50.264;11.918;2023-01-01T06:18:44;95868.28;;;12.73;77.23
40946;BME280;55635;50.264;11.918;2023-01-01T06:21:27;95874.09;;;12.83;76.81
40946;BME280;55635;50.264;11.918;2023-01-01T06:24:08;95863.47;;;12.83;76.86
40946;BME280;55635;50.264;11.918;2023-01-01T06:26:49;95867.19;;;12.88;76.63
40946;BME280;55635;50.264;11.918;2023-01-01T06:29:30;95875.22;;;12.95;76.57
40946;BME280;55635;50.264;11.918;2023-01-01T06:32:11;95874.66;;;12.99;76.16
40946;BME280;55635;50.264;11.918;2023-01-01T06:34:51;95882.81;;;12.98;75.84
40946;BME280;55635;50.264;11.918;2023-01-01T06:37:32;95879.16;;;12.99;76.28
40946;BME280;55635;50.264;11.918;2023-01-01T06:40:13;95880.19;;;12.77;76.41
40946;BME280;55635;50.264;11.918;2023-01-01T06:42:54;95881.69;;;12.86;75.96
40946;BME280;55635;50.264;11.918;2023-01-01T06:45:35;95892.78;;;12.89;76.04
40946;BME280;55635;50.264;11.918;2023-01-01T06:48:16;95874.25;;;12.75;76.35
40946;BME280;55635;50.264;11.918;2023-01-01T06:50:58;95882.66;;;12.78;76.16
40946;BME280;55635;50.264;11.918;2023-01-01T06:53:45;95885.13;;;12.80;76.03
40946;BME280;55635;50.264;11.918;2023-01-01T06:56:26;95896.41;;;12.82;75.83
40946;BME280;55635;50.264;11.918;2023-01-01T06:59:07;95900.34;;;12.86;75.85
40946;BME280;55635;50.264;11.918;2023-01-01T07:01:48;95891.34;;;12.87;75.81
40946;BME280;55635;50.264;11.918;2023-01-01T07:04:29;95897.66;;;12.86;75.47
40946;BME280;55635;50.264;11.918;2023-01-01T07:07:09;95910.72;;;13.02;75.11
40946;BME280;55635;50.264;11.918;2023-01-01T07:09:50;95898.78;;;12.98;74.62
40946;BME280;55635;50.264;11.918;2023-01-01T07:12:31;95910.06;;;13.00;74.75
40946;BME280;55635;50.264;11.918;2023-01-01T07:15:12;95907.31;;;13.08;74.21
40946;BME280;55635;50.264;11.918;2023-01-01T07:17:53;95909.50;;;13.04;74.69
40946;BME280;55635;50.264;11.918;2023-01-01T07:20:34;95903.88;;;13.14;73.88
40946;BME280;55635;50.264;11.918;2023-01-01T07:23:15;95912.78;;;13.06;73.98
40946;BME280;55635;50.264;11.918;2023-01-01T07:25:56;95916.72;;;13.38;73.22
40946;BME280;55635;50.264;11.918;2023-01-01T07:28:37;95919.22;;;13.46;72.49
40946;BME280;55635;50.264;11.918;2023-01-01T07:31:18;95916.03;;;13.57;72.02
40946;BME280;55635;50.264;11.918;2023-01-01T07:33:59;95923.31;;;13.77;71.58
40946;BME280;55635;50.264;11.918;2023-01-01T07:36:40;95946.47;;;13.76;71.17
40946;BME280;55635;50.264;11.918;2023-01-01T07:39:21;95944.91;;;13.95;70.24
40946;BME280;55635;50.264;11.918;2023-01-01T07:42:02;95941.44;;;13.94;70.99
40946;BME280;55635;50.264;11.918;2023-01-01T07:44:43;95947.94;;;14.26;69.73
40946;BME280;55635;50.264;11.918;2023-01-01T07:47:25;95950.50;;;14.00;69.94
40946;BME280;55635;50.264;11.918;2023-01-01T07:50:09;95949.53;;;14.14;69.95
40946;BME280;55635;50.264;11.918;2023-01-01T07:52:54;95940.16;;;14.25;69.22
40946;BME280;55635;50.264;11.918;2023-01-01T07:55:35;95939.41;;;14.44;68.46
40946;BME280;55635;50.264;11.918;2023-01-01T07:58:16;95955.75;;;14.28;68.16
40946;BME280;55635;50.264;11.918;2023-01-01T08:00:57;95959.41;;;14.20;68.68
40946;BME280;55635;50.264;11.918;2023-01-01T08:03:38;95942.25;;;14.36;68.29
40946;BME280;55635;50.264;11.918;2023-01-01T08:06:19;95942.09;;;14.50;67.56
40946;BME280;55635;50.264;11.918;2023-01-01T08:09:01;95957.34;;;14.76;66.14
40946;BME280;55635;50.264;11.918;2023-01-01T08:11:42;95963.56;;;15.09;64.76
40946;BME280;55635;50.264;11.918;2023-01-01T08:14:24;95959.66;;;15.51;64.69
40946;BME280;55635;50.264;11.918;2023-01-01T08:17:07;95969.94;;;15.48;62.57
40946;BME280;55635;50.264;11.918;2023-01-01T08:19:48;95968.09;;;15.22;63.67
40946;BME280;55635;50.264;11.918;2023-01-01T08:22:30;95975.25;;;15.41;63.97
40946;BME280;55635;50.264;11.918;2023-01-01T08:25:11;95976.72;;;15.04;64.26
40946;BME280;55635;50.264;11.918;2023-01-01T08:27:51;95984.72;;;15.24;63.93
40946;BME280;55635;50.264;11.918;2023-01-01T08:30:32;95967.84;;;14.91;64.68
40946;BME280;55635;50.264;11.918;2023-01-01T08:33:13;95981.00;;;14.86;64.47
40946;BME280;55635;50.264;11.918;2023-01-01T08:35:54;95967.03;;;15.03;64.07
40946;BME280;55635;50.264;11.918;2023-01-01T08:38:35;95991.66;;;14.86;64.47
40946;BME280;55635;50.264;11.918;2023-01-01T08:41:16;95989.38;;;14.69;65.11
40946;BME280;55635;50.264;11.918;2023-01-01T08:43:57;95993.91;;;14.82;65.27
40946;BME280;55635;50.264;11.918;2023-01-01T08:46:38;95975.25;;;15.02;63.89
40946;BME280;55635;50.264;11.918;2023-01-01T08:49:19;95992.09;;;14.96;64.41
40946;BME280;55635;50.264;11.918;2023-01-01T08:52:00;96010.16;;;14.94;64.29
40946;BME280;55635;50.264;11.918;2023-01-01T08:54:41;96004.59;;;14.95;64.44
40946;BME280;55635;50.264;11.918;2023-01-01T08:57:22;96006.44;;;14.82;63.96
40946;BME280;55635;50.264;11.918;2023-01-01T09:00:04;96010.59;;;15.17;64.50
40946;BME280;55635;50.264;11.918;2023-01-01T09:02:45;96000.81;;;15.50;63.44
40946;BME280;55635;50.264;11.918;2023-01-01T09:05:26;96011.44;;;15.24;63.13
40946;BME280;55635;50.264;11.918;2023-01-01T09:08:07;96001.09;;;14.82;64.36
40946;BME280;55635;50.264;11.918;2023-01-01T09:10:48;96000.72;;;14.98;63.62
40946;BME280;55635;50.264;11.918;2023-01-01T09:13:30;96001.13;;;15.08;64.24
40946;BME280;55635;50.264;11.918;2023-01-01T09:16:11;96009.75;;;14.97;63.87
40946;BME280;55635;50.264;11.918;2023-01-01T09:18:52;96021.50;;;15.09;64.11
40946;BME280;55635;50.264;11.918;2023-01-01T09:21:33;96031.97;;;15.04;64.88
40946;BME280;55635;50.264;11.918;2023-01-01T09:24:14;96018.66;;;15.43;63.49
40946;BME280;55635;50.264;11.918;2023-01-01T09:26:56;96037.94;;;15.32;63.58
40946;BME280;55635;50.264;11.918;2023-01-01T09:29:38;96035.75;;;15.55;63.04
40946;BME280;55635;50.264;11.918;2023-01-01T09:32:18;96027.91;;;15.34;62.63
40946;BME280;55635;50.264;11.918;2023-01-01T09:34:59;96033.88;;;15.75;62.63
40946;BME280;55635;50.264;11.918;2023-01-01T09:37:40;96039.63;;;15.79;61.47
40946;BME280;55635;50.264;11.918;2023-01-01T09:40:30;96060.41;;;15.90;63.48
40946;BME280;55635;50.264;11.918;2023-01-01T09:46:31;96050.44;;;16.37;61.19
40946;BME280;55635;50.264;11.918;2023-01-01T09:49:33;96049.50;;;15.98;61.74
40946;BME280;55635;50.264;11.918;2023-01-01T09:52:16;96042.25;;;16.12;62.17
40946;BME280;55635;50.264;11.918;2023-01-01T09:55:05;96044.16;;;15.92;61.99
40946;BME280;55635;50.264;11.918;2023-01-01T09:57:51;96050.94;;;15.81;61.80
40946;BME280;55635;50.264;11.918;2023-01-01T10:00:33;96054.66;;;15.67;63.25
40946;BME280;55635;50.264;11.918;2023-01-01T10:03:19;96039.81;;;15.97;62.56
40946;BME280;55635;50.264;11.918;2023-01-01T10:06:27;96030.25;;;16.47;61.97
40946;BME280;55635;50.264;11.918;2023-01-01T10:09:33;96048.75;;;16.49;61.49
40946;BME280;55635;50.264;11.918;2023-01-01T10:15:24;96029.56;;;15.88;63.34
40946;BME280;55635;50.264;11.918;2023-01-01T10:18:20;96037.78;;;15.47;63.80
40946;BME280;55635;50.264;11.918;2023-01-01T10:21:16;96058.34;;;15.72;63.51
40946;BME280;55635;50.264;11.918;2023-01-01T10:24:04;96053.00;;;15.86;63.00
40946;BME280;55635;50.264;11.918;2023-01-01T10:26:47;96052.81;;;15.74;63.65
40946;BME280;55635;50.264;11.918;2023-01-01T10:29:45;96064.84;;;16.42;61.91
40946;BME280;55635;50.264;11.918;2023-01-01T10:32:34;96047.66;;;15.86;62.45
40946;BME280;55635;50.264;11.918;2023-01-01T10:35:20;96038.44;;;15.68;62.62
40946;BME280;55635;50.264;11.918;2023-01-01T10:38:04;96030.34;;;15.29;64.48
40946;BME280;55635;50.264;11.918;2023-01-01T10:40:45;96042.28;;;15.40;64.32
40946;BME280;55635;50.264;11.918;2023-01-01T10:43:26;96031.81;;;15.32;64.16
40946;BME280;55635;50.264;11.918;2023-01-01T10:46:12;96045.56;;;15.22;64.47
40946;BME280;55635;50.264;11.918;2023-01-01T10:51:50;96038.53;;;14.95;65.34
40946;BME280;55635;50.264;11.918;2023-01-01T10:54:39;96041.22;;;15.01;65.71
40946;BME280;55635;50.264;11.918;2023-01-01T10:57:31;96034.00;;;15.02;66.21
40946;BME280;55635;50.264;11.918;2023-01-01T11:00:26;96042.66;;;15.04;65.81
40946;BME280;55635;50.264;11.918;2023-01-01T11:03:21;96049.81;;;14.97;65.10
40946;BME280;55635;50.264;11.918;2023-01-01T11:06:24;96062.56;;;15.01;65.94
40946;BME280;55635;50.264;11.918;2023-01-01T11:09:20;96057.06;;;15.16;66.78
40946;BME280;55635;50.264;11.918;2023-01-01T11:12:05;96056.56;;;14.93;66.35
40946;BME280;55635;50.264;11.918;2023-01-01T11:14:54;96062.56;;;14.95;65.22
40946;BME280;55635;50.264;11.918;2023-01-01T11:17:37;96043.88;;;15.01;65.77
40946;BME280;55635;50.264;11.918;2023-01-01T11:20:19;96053.09;;;14.99;65.65
40946;BME280;55635;50.264;11.918;2023-01-01T11:29:45;96036.91;;;15.07;65.59
40946;BME280;55635;50.264;11.918;2023-01-01T11:32:06;96053.59;;;15.29;64.17
40946;BME280;55635;50.264;11.918;2023-01-01T11:35:01;96039.38;;;15.21;64.57
40946;BME280;55635;50.264;11.918;2023-01-01T11:37:45;96043.91;;;15.21;65.28
40946;BME280;55635;50.264;11.918;2023-01-01T11:40:43;96033.44;;;15.39;64.17
40946;BME280;55635;50.264;11.918;2023-01-01T11:43:26;96032.03;;;15.89;63.65
40946;BME280;55635;50.264;11.918;2023-01-01T11:46:22;96022.34;;;15.75;62.85
40946;BME280;55635;50.264;11.918;2023-01-01T11:49:13;96017.88;;;15.56;64.46
40946;BME280;55635;50.264;11.918;2023-01-01T11:51:56;96023.22;;;15.56;63.78
40946;BME280;55635;50.264;11.918;2023-01-01T11:54:37;96018.25;;;15.40;63.66
40946;BME280;55635;50.264;11.918;2023-01-01T11:57:22;96013.53;;;15.55;63.65
40946;BME280;55635;50.264;11.918;2023-01-01T12:00:06;96018.00;;;15.41;64.54
40946;BME280;55635;50.264;11.918;2023-01-01T12:03:23;96024.00;;;15.76;64.07
40946;BME280;55635;50.264;11.918;2023-01-01T12:09:32;96002.19;;;15.92;62.03
40946;BME280;55635;50.264;11.918;2023-01-01T12:12:30;95997.69;;;15.79;63.35
40946;BME280;55635;50.264;11.918;2023-01-01T12:15:29;96002.09;;;16.25;61.99
40946;BME280;55635;50.264;11.918;2023-01-01T12:18:43;96001.78;;;16.02;60.67
40946;BME280;55635;50.264;11.918;2023-01-01T12:21:28;96008.97;;;15.95;62.06
40946;BME280;55635;50.264;11.918;2023-01-01T12:24:11;96002.00;;;15.81;63.35
40946;BME280;55635;50.264;11.918;2023-01-01T12:26:58;96015.56;;;15.99;62.61
40946;BME280;55635;50.264;11.918;2023-01-01T12:30:22;96012.38;;;16.34;61.07
40946;BME280;55635;50.264;11.918;2023-01-01T12:34:04;96002.22;;;16.56;59.87
40946;BME280;55635;50.264;11.918;2023-01-01T12:40:54;96005.34;;;16.40;61.02
40946;BME280;55635;50.264;11.918;2023-01-01T12:44:01;96014.03;;;16.36;61.32
40946;BME280;55635;50.264;11.918;2023-01-01T12:47:10;95999.75;;;15.77;60.82
40946;BME280;55635;50.264;11.918;2023-01-01T12:59:17;95987.03;;;15.53;64.07
40946;BME280;55635;50.264;11.918;2023-01-01T13:02:02;95972.38;;;15.23;63.25
40946;BME280;55635;50.264;11.918;2023-01-01T13:04:56;95972.41;;;15.43;62.74
40946;BME280;55635;50.264;11.918;2023-01-01T13:07:46;95979.44;;;15.50;63.36
40946;BME280;55635;50.264;11.918;2023-01-01T13:10:39;95960.06;;;15.22;63.93
40946;BME280;55635;50.264;11.918;2023-01-01T13:13:22;95972.78;;;15.20;63.11
40946;BME280;55635;50.264;11.918;2023-01-01T13:16:03;95963.34;;;15.24;64.09
40946;BME280;55635;50.264;11.918;2023-01-01T13:18:48;95973.63;;;15.34;63.82
40946;BME280;55635;50.264;11.918;2023-01-01T13:21:30;95951.44;;;15.20;63.78
40946;BME280;55635;50.264;11.918;2023-01-01T13:24:24;95965.41;;;15.29;63.88
40946;BME280;55635;50.264;11.918;2023-01-01T13:27:08;95981.25;;;15.10;63.77
40946;BME280;55635;50.264;11.918;2023-01-01T13:29:50;95971.56;;;15.16;63.26
40946;BME280;55635;50.264;11.918;2023-01-01T13:38:57;95982.03;;;15.17;63.02
40946;BME280;55635;50.264;11.918;2023-01-01T13:41:40;96006.34;;;15.49;62.77
40946;BME280;55635;50.264;11.918;2023-01-01T13:44:23;95993.38;;;15.46;63.65
40946;BME280;55635;50.264;11.918;2023-01-01T13:47:27;95988.47;;;15.56;63.39
40946;BME280;55635;50.264;11.918;2023-01-01T13:50:39;95990.91;;;15.31;62.80
40946;BME280;55635;50.264;11.918;2023-01-01T13:56:57;95999.75;;;15.58;61.59
40946;BME280;55635;50.264;11.918;2023-01-01T14:03:06;96000.16;;;15.22;62.73
40946;BME280;55635;50.264;11.918;2023-01-01T14:06:01;95999.09;;;15.10;62.83
40946;BME280;55635;50.264;11.918;2023-01-01T14:08:42;95997.28;;;15.37;62.86
40946;BME280;55635;50.264;11.918;2023-01-01T14:11:25;96008.34;;;15.27;62.78
40946;BME280;55635;50.264;11.918;2023-01-01T14:14:24;96005.69;;;15.34;62.76
40946;BME280;55635;50.264;11.918;2023-01-01T14:17:06;96000.94;;;15.09;63.66
40946;BME280;55635;50.264;11.918;2023-01-01T14:19:48;95997.44;;;15.02;63.60
40946;BME280;55635;50.264;11.918;2023-01-01T14:22:30;96007.28;;;14.95;63.72
40946;BME280;55635;50.264;11.918;2023-01-01T14:25:25;96015.28;;;14.95;64.08
40946;BME280;55635;50.264;11.918;2023-01-01T14:28:22;96001.75;;;15.03;63.42
40946;BME280;55635;50.264;11.918;2023-01-01T14:31:27;96009.34;;;15.00;63.63
40946;BME280;55635;50.264;11.918;2023-01-01T14:34:30;96026.03;;;15.21;64.14
40946;BME280;55635;50.264;11.918;2023-01-01T14:37:24;96020.06;;;15.06;64.29
40946;BME280;55635;50.264;11.918;2023-01-01T14:40:24;96029.53;;;15.15;63.61
40946;BME280;55635;50.264;11.918;2023-01-01T14:43:10;96031.97;;;15.04;62.90
40946;BME280;55635;50.264;11.918;2023-01-01T14:45:52;96036.66;;;14.89;64.53
40946;BME280;55635;50.264;11.918;2023-01-01T14:48:36;96031.94;;;14.91;65.03
40946;BME280;55635;50.264;11.918;2023-01-01T14:51:26;96021.81;;;14.73;64.78
40946;BME280;55635;50.264;11.918;2023-01-01T14:54:15;96027.56;;;14.83;64.21
40946;BME280;55635;50.264;11.918;2023-01-01T14:56:58;96035.38;;;14.78;64.75
40946;BME280;55635;50.264;11.918;2023-01-01T14:59:48;96037.63;;;14.75;65.43
40946;BME280;55635;50.264;11.918;2023-01-01T15:02:39;96046.81;;;14.59;65.14
40946;BME280;55635;50.264;11.918;2023-01-01T15:05:29;96042.50;;;14.58;66.21
40946;BME280;55635;50.264;11.918;2023-01-01T15:08:20;96044.63;;;14.35;66.29
40946;BME280;55635;50.264;11.918;2023-01-01T15:11:02;96053.28;;;14.43;66.17
40946;BME280;55635;50.264;11.918;2023-01-01T15:14:01;96054.16;;;14.50;65.71
40946;BME280;55635;50.264;11.918;2023-01-01T15:16:42;96050.63;;;14.43;65.49
40946;BME280;55635;50.264;11.918;2023-01-01T15:19:23;96043.66;;;14.42;65.38
40946;BME280;55635;50.264;11.918;2023-01-01T15:22:11;96047.06;;;14.30;66.12
40946;BME280;55635;50.264;11.918;2023-01-01T15:24:58;96048.91;;;14.29;66.08
40946;BME280;55635;50.264;11.918;2023-01-01T15:27:39;96053.63;;;14.27;66.64
40946;BME280;55635;50.264;11.918;2023-01-01T15:30:26;96059.81;;;14.34;66.05
40946;BME280;55635;50.264;11.918;2023-01-01T15:33:13;96060.84;;;14.33;66.27
40946;BME280;55635;50.264;11.918;2023-01-01T15:35:56;96055.75;;;14.38;65.88
40946;BME280;55635;50.264;11.918;2023-01-01T15:38:46;96063.75;;;14.38;65.65
40946;BME280;55635;50.264;11.918;2023-01-01T15:41:48;96059.28;;;14.45;65.68
40946;BME280;55635;50.264;11.918;2023-01-01T15:44:33;96063.31;;;14.35;65.38
40946;BME280;55635;50.264;11.918;2023-01-01T15:47:17;96062.56;;;14.47;65.10
40946;BME280;55635;50.264;11.918;2023-01-01T15:50:21;96057.69;;;14.57;64.96
40946;BME280;55635;50.264;11.918;2023-01-01T15:56:19;96062.31;;;14.36;65.74